createdAt,value
2018-07-17T00:41:10.516Z,16.70
2018-07-17T00:54:21.024Z,8.90
2018-07-17T01:30:13.574Z,10.87
2018-07-17T01:35:44.424Z,10.47
2018-07-17T01:38:40.032Z,8.13
2018-07-17T01:41:29.053Z,8.33
2018-07-17T01:44:29.925Z,8.00
2018-07-17T01:47:03.557Z,6.53
2018-07-17T01:50:20.290Z,8.93
2018-07-17T03:19:59.312Z,10.43
2018-07-17T03:24:06.640Z,8.80
2018-07-17T03:42:08.295Z,8.83
2018-07-17T03:51:08.169Z,7.33
2018-07-17T04:09:05.765Z,10.57
2018-07-17T04:15:09.145Z,8.93
2018-07-17T04:21:05.939Z,8.37
2018-07-17T04:24:37.687Z,8.27
2018-07-17T04:28:16.631Z,8.53
2018-07-17T04:34:36.467Z,8.77
2018-07-17T04:44:24.682Z,8.30
2018-07-17T04:53:37.875Z,6.37
2018-07-17T04:56:28.784Z,7.43
2018-07-17T04:59:08.428Z,6.57
2018-07-17T05:01:45.296Z,6.60
2018-07-17T05:16:18.067Z,7.07
2018-07-17T05:18:50.690Z,7.57
2018-07-17T05:22:10.505Z,5.73
2018-07-17T05:24:43.284Z,7.07
2018-07-17T05:27:47.556Z,6.93
2018-07-17T05:30:24.217Z,7.57
2018-07-17T05:33:10.198Z,6.83
2018-07-17T05:35:44.602Z,5.90
2018-07-17T05:38:28.480Z,6.67
2018-07-17T05:41:06.584Z,5.93
2018-07-17T05:43:54.358Z,5.80
2018-07-17T05:46:40.177Z,6.37
2018-07-17T05:49:40.685Z,5.67
2018-07-17T05:52:19.855Z,6.27
2018-07-17T05:59:43.622Z,6.63
2018-07-17T06:07:23.754Z,6.90
2018-07-17T06:18:49.234Z,6.60
2018-07-17T06:31:07.377Z,6.87
2018-07-17T06:33:41.603Z,7.00
2018-07-17T06:36:22.217Z,7.10
2018-07-17T06:39:13.963Z,6.30
2018-07-17T06:41:51.641Z,6.70
2018-07-17T06:44:51.575Z,5.93
2018-07-17T06:47:43.490Z,6.83
2018-07-17T07:03:43.949Z,7.67
2018-07-17T07:10:36.097Z,6.70
2018-07-17T07:13:47.738Z,6.87
2018-07-17T07:24:04.021Z,7.80
2018-07-17T07:26:48.239Z,6.57
2018-07-17T07:48:32.783Z,9.67
2018-07-17T07:57:26.824Z,7.23
2018-07-17T08:00:18.649Z,6.90
2018-07-17T08:02:50.685Z,6.30
2018-07-17T08:05:43.839Z,7.17
2018-07-17T08:11:24.725Z,7.30
2018-07-17T08:13:59.438Z,6.90
2018-07-17T08:22:05.103Z,7.20
2018-07-17T08:27:29.193Z,8.57
2018-07-17T08:35:50.723Z,8.50
2018-07-17T08:42:00.645Z,8.05
2018-07-17T08:48:34.046Z,8.10
2018-07-17T08:51:21.445Z,8.10
2018-07-17T08:53:55.549Z,9.03
2018-07-17T09:01:37.177Z,7.47
2018-07-17T09:04:17.953Z,8.50
2018-07-17T09:08:11.335Z,7.57
2018-07-17T09:10:52.055Z,7.63
2018-07-17T09:13:43.922Z,7.13
2018-07-17T09:22:39.058Z,7.77
2018-07-17T09:28:13.525Z,7.87
2018-07-17T09:30:51.658Z,6.73
2018-07-17T09:33:26.650Z,6.77
2018-07-17T09:36:04.986Z,7.50
2018-07-17T09:38:45.968Z,7.50
2018-07-17T09:41:20.677Z,7.47
2018-07-17T09:43:52.964Z,6.27
2018-07-17T09:46:28.887Z,7.47
2018-07-17T09:49:23.023Z,6.33
2018-07-17T09:54:47.544Z,6.53
2018-07-17T09:58:20.579Z,7.30
2018-07-17T10:01:06.071Z,7.00
2018-07-17T10:03:56.353Z,8.00
2018-07-17T10:06:52.391Z,8.20
2018-07-17T10:09:40.846Z,8.83
2018-07-17T10:12:46.622Z,7.70
2018-07-17T10:18:19.258Z,8.40
2018-07-17T10:44:33.628Z,9.40
2018-07-17T10:50:20.577Z,9.80
2018-07-17T11:12:25.930Z,9.43
2018-07-17T11:18:51.864Z,11.03
2018-07-17T11:21:47.953Z,10.63
2018-07-17T11:27:55.216Z,11.45
2018-07-17T11:30:37.019Z,10.57
2018-07-17T11:33:33.133Z,11.23
2018-07-17T11:39:22.387Z,9.43
2018-07-17T11:42:13.470Z,8.40
2018-07-17T12:00:13.328Z,11.10
2018-07-17T12:02:44.212Z,11.87
2018-07-17T12:05:22.981Z,10.83
2018-07-17T12:07:56.131Z,10.07
2018-07-17T12:10:31.418Z,11.97
2018-07-17T12:13:04.478Z,10.10
2018-07-17T12:15:50.748Z,8.40
2018-07-17T12:18:23.483Z,8.85
2018-07-17T12:20:58.076Z,8.70
2018-07-17T12:23:39.967Z,9.70
2018-07-17T12:32:28.491Z,9.00
2018-07-17T12:35:30.559Z,8.80
2018-07-17T12:38:05.251Z,10.30
2018-07-17T12:40:40.244Z,10.77
2018-07-17T12:43:12.759Z,10.40
2018-07-17T12:45:45.831Z,10.70
2018-07-17T12:48:22.218Z,10.93
2018-07-17T12:50:59.932Z,11.20
2018-07-17T12:53:37.170Z,11.25
2018-07-17T12:56:22.165Z,8.85
2018-07-17T12:59:17.513Z,10.00
2018-07-17T13:04:41.277Z,9.50
2018-07-17T13:07:12.519Z,9.30
2018-07-17T13:09:45.400Z,17.60
2018-07-17T13:12:20.352Z,8.05
2018-07-17T13:15:07.460Z,8.05
2018-07-17T13:20:21.420Z,7.20
2018-07-17T13:22:59.065Z,7.90
2018-07-17T13:28:12.783Z,4.55
2018-07-17T13:30:49.219Z,4.90
2018-07-17T13:33:22.216Z,4.65
2018-07-17T13:36:09.219Z,4.90
2018-07-17T13:38:43.724Z,6.30
2018-07-17T13:41:20.929Z,5.85
2018-07-17T13:44:01.066Z,6.20
2018-07-17T13:46:36.409Z,7.70
2018-07-17T13:49:10.225Z,6.00
2018-07-17T13:51:44.379Z,7.95
2018-07-17T13:54:16.866Z,6.90
2018-07-17T13:57:25.444Z,6.10
2018-07-17T13:59:59.528Z,7.35
2018-07-17T14:02:33.047Z,5.70
2018-07-17T14:07:41.730Z,5.40
2018-07-17T14:12:51.119Z,7.30
2018-07-17T14:15:27.363Z,6.00
2018-07-17T14:20:50.414Z,5.50
2018-07-17T14:23:28.969Z,4.80
2018-07-17T14:26:02.397Z,5.70
2018-07-17T14:28:37.153Z,6.00
2018-07-17T14:33:56.577Z,5.10
2018-07-17T14:36:30.407Z,5.05
2018-07-17T14:39:03.280Z,5.00
2018-07-17T14:41:35.523Z,5.10
2018-07-17T14:44:08.076Z,5.65
2018-07-17T14:46:44.112Z,5.15
2018-07-17T14:49:27.791Z,5.00
2018-07-17T14:52:04.605Z,4.40
2018-07-17T14:54:39.712Z,4.45
2018-07-17T14:57:20.404Z,6.05
2018-07-17T14:59:56.818Z,3.65
2018-07-17T15:02:34.140Z,4.80
2018-07-17T15:05:10.309Z,6.80
2018-07-17T15:07:43.326Z,6.35
2018-07-17T15:10:17.679Z,5.50
2018-07-17T15:12:50.170Z,5.00
2018-07-17T15:15:27.791Z,5.20
2018-07-17T15:18:01.507Z,5.65
2018-07-17T15:20:33.752Z,6.55
2018-07-17T15:23:06.202Z,6.40
2018-07-17T15:25:38.460Z,5.65
2018-07-17T15:28:12.804Z,5.20
2018-07-17T15:30:48.788Z,5.00
2018-07-17T15:33:22.243Z,5.30
2018-07-17T15:35:58.253Z,4.80
2018-07-17T15:38:35.985Z,4.05
2018-07-17T15:41:11.905Z,4.87
2018-07-17T15:43:48.013Z,5.20
2018-07-17T15:46:24.099Z,5.30
2018-07-17T15:48:58.190Z,4.15
2018-07-17T15:51:40.426Z,5.40
2018-07-17T15:54:12.996Z,6.60
2018-07-17T15:56:49.537Z,5.40
2018-07-17T15:59:23.674Z,5.20
2018-07-17T16:01:58.824Z,6.30
2018-07-17T16:04:42.300Z,5.20
2018-07-17T16:07:15.848Z,6.60
2018-07-17T16:09:49.402Z,5.90
2018-07-17T16:12:25.174Z,5.45
2018-07-17T16:14:59.957Z,5.60
2018-07-17T16:17:37.343Z,5.03
2018-07-17T16:20:11.333Z,4.70
2018-07-17T16:22:45.437Z,4.70
2018-07-17T16:25:18.354Z,4.20
2018-07-17T16:27:52.223Z,6.15
2018-07-17T16:30:29.143Z,6.95
2018-07-17T16:33:02.130Z,4.83
2018-07-17T16:35:36.429Z,4.80
2018-07-17T16:38:10.203Z,4.70
2018-07-17T16:40:46.179Z,5.90
2018-07-17T16:43:25.539Z,5.93
2018-07-17T16:45:59.427Z,5.07
2018-07-17T16:48:35.177Z,4.20
2018-07-17T16:54:08.687Z,4.30
2018-07-17T16:56:44.150Z,4.85
2018-07-17T16:59:18.601Z,4.50
2018-07-17T17:04:39.689Z,4.60
2018-07-17T17:07:13.234Z,4.60
2018-07-17T17:09:49.170Z,4.85
2018-07-17T17:12:23.671Z,6.53
2018-07-17T17:14:56.956Z,5.17
2018-07-17T17:17:34.521Z,4.83
2018-07-17T17:20:13.903Z,9.17
2018-07-17T17:22:54.700Z,6.07
2018-07-17T17:25:43.548Z,5.83
2018-07-17T17:31:17.194Z,5.53
2018-07-17T17:33:52.823Z,7.60
2018-07-17T17:36:52.692Z,5.77
2018-07-17T17:45:36.107Z,13.70
2018-07-17T17:48:12.000Z,4.80
2018-07-17T17:50:52.431Z,6.57
2018-07-17T17:53:26.319Z,5.23
2018-07-17T17:56:03.421Z,5.60
2018-07-17T17:58:40.344Z,5.17
2018-07-17T18:01:17.112Z,4.73
2018-07-17T18:03:57.827Z,4.90
2018-07-17T18:06:31.171Z,4.63
2018-07-17T18:09:05.577Z,9.37
2018-07-17T18:11:40.997Z,6.30
2018-07-17T18:14:33.322Z,4.60
2018-07-17T18:17:07.238Z,4.20
2018-07-17T18:19:45.862Z,4.63
2018-07-17T18:22:21.406Z,5.87
2018-07-17T18:25:01.995Z,4.97
2018-07-17T18:27:40.749Z,4.50
2018-07-17T18:30:19.533Z,7.20
2018-07-17T18:32:55.356Z,5.67
2018-07-17T18:35:28.962Z,6.43
2018-07-17T18:38:01.254Z,6.80
2018-07-17T18:40:38.259Z,7.87
2018-07-17T18:43:14.105Z,5.67
2018-07-17T18:48:24.222Z,6.30
2018-07-17T18:50:58.040Z,4.97
2018-07-17T18:53:31.439Z,5.50
2018-07-17T18:56:04.567Z,7.17
2018-07-17T18:58:37.659Z,6.30
2018-07-17T19:01:13.867Z,5.73
2018-07-17T19:03:48.023Z,5.20
2018-07-17T19:06:22.494Z,6.93
2018-07-17T19:08:58.645Z,6.87
2018-07-17T19:11:31.507Z,9.53
2018-07-17T19:14:07.853Z,6.43
2018-07-17T19:16:42.064Z,4.50
2018-07-17T19:19:14.262Z,6.40
2018-07-17T19:21:48.404Z,4.67
2018-07-17T19:24:25.879Z,4.87
2018-07-17T19:27:00.439Z,5.40
2018-07-17T19:29:34.402Z,5.80
2018-07-17T19:32:06.877Z,6.00
2018-07-17T19:34:52.823Z,6.90
2018-07-17T19:37:25.211Z,5.37
2018-07-17T19:39:57.311Z,5.80
2018-07-17T19:42:30.872Z,4.47
2018-07-17T19:45:04.033Z,6.93
2018-07-17T19:47:44.824Z,4.87
2018-07-17T19:50:18.055Z,4.93
2018-07-17T19:52:53.587Z,4.70
2018-07-17T19:55:35.222Z,5.17
2018-07-17T19:58:11.552Z,4.37
2018-07-17T20:00:55.976Z,3.50
2018-07-17T20:03:56.280Z,4.97
2018-07-17T20:09:58.043Z,5.20
2018-07-17T20:12:41.276Z,6.13
2018-07-17T20:15:18.988Z,4.57
2018-07-17T20:17:58.395Z,5.40
2018-07-17T20:23:43.994Z,4.33
2018-07-17T20:26:24.082Z,4.00
2018-07-17T20:29:00.604Z,4.97
2018-07-17T20:31:38.045Z,5.37
2018-07-17T20:37:40.445Z,7.03
2018-07-17T20:40:16.315Z,4.90
2018-07-17T20:43:02.053Z,4.17
2018-07-17T20:48:29.372Z,5.10
2018-07-17T20:51:03.153Z,5.70
2018-07-17T20:53:36.711Z,4.33
2018-07-17T20:56:11.605Z,5.70
2018-07-17T20:58:46.954Z,4.17
2018-07-17T21:01:20.472Z,7.23
2018-07-17T21:03:54.327Z,5.17
2018-07-17T21:11:56.358Z,4.60
2018-07-17T21:14:34.307Z,5.00
2018-07-17T21:17:13.981Z,8.60
2018-07-17T21:19:48.044Z,4.50
2018-07-17T21:22:33.945Z,5.17
2018-07-17T21:25:09.754Z,4.83
2018-07-17T21:27:48.383Z,6.80
2018-07-17T21:30:42.543Z,4.90
2018-07-17T21:33:16.092Z,5.77
2018-07-17T21:35:50.957Z,4.93
2018-07-17T21:38:26.893Z,4.00
2018-07-17T21:41:01.396Z,4.10
2018-07-17T21:43:35.176Z,6.37
2018-07-17T21:46:14.580Z,4.47
2018-07-17T21:48:48.729Z,4.93
2018-07-17T21:51:22.505Z,7.33
2018-07-17T21:53:58.874Z,4.93
2018-07-17T21:56:38.032Z,5.10
2018-07-17T21:59:15.941Z,5.30
2018-07-17T22:01:53.442Z,4.90
2018-07-17T22:07:11.049Z,6.83
2018-07-17T22:09:44.719Z,3.90
2018-07-17T22:12:32.940Z,5.83
2018-07-17T22:15:10.869Z,5.07
2018-07-17T22:17:47.852Z,4.90
2018-07-17T22:20:23.754Z,5.83
2018-07-17T22:23:01.805Z,4.70
2018-07-17T22:25:46.755Z,4.93
2018-07-17T22:31:38.781Z,8.57
2018-07-17T22:34:27.641Z,4.63
2018-07-17T22:40:25.565Z,5.10
2018-07-17T22:43:14.100Z,4.60
2018-07-17T22:45:50.942Z,5.50
2018-07-17T22:48:25.219Z,4.90
2018-07-17T22:50:57.599Z,4.15
2018-07-17T22:53:36.569Z,4.80
2018-07-17T22:56:09.655Z,5.97
2018-07-17T22:58:42.873Z,5.57
2018-07-17T23:01:17.154Z,5.77
2018-07-17T23:03:50.049Z,6.67
2018-07-17T23:06:26.946Z,6.50
2018-07-17T23:11:35.194Z,8.07
2018-07-17T23:14:12.581Z,4.90
2018-07-17T23:16:47.784Z,5.90
2018-07-17T23:22:17.897Z,5.50
2018-07-17T23:24:59.934Z,5.67
2018-07-17T23:28:01.860Z,7.17
2018-07-17T23:30:46.320Z,5.50
2018-07-17T23:33:40.544Z,4.90
2018-07-17T23:36:43.507Z,6.85
2018-07-17T23:39:21.720Z,6.20
2018-07-17T23:42:03.069Z,6.93
2018-07-17T23:47:28.269Z,6.25
2018-07-17T23:55:13.186Z,7.30
